Time;durP1;ratioP1;P1;durP2;ratioP2;P2;SDS_P1;SDS_P2;PMS_P1;PMS_P2;Temp;Humidity;BMP_temperature;BMP_pressure;BME280_temperature;BME280_humidity;BME280_pressure;Samples;Min_cycle;Max_cycle;Signal;HPM_P1;HPM_P2
2021/12/01 00:01:07;;;;;;;4.80;3.00;;;;;;;5.87;96.42;98389.47;5039758;28;20463;-61
2021/12/01 00:03:32;;;;;;;4.30;3.00;;;;;;;5.82;96.03;98369.69;5039316;28;20037;-60
2021/12/01 00:05:57;;;;;;;4.72;2.80;;;;;;;5.80;95.94;98377.09;5039268;28;20435;-61
2021/12/01 00:08:23;;;;;;;5.57;2.63;;;;;;;5.85;95.85;98363.09;5040241;28;20040;-60
2021/12/01 00:10:48;;;;;;;5.85;3.20;;;;;;;5.84;95.62;98353.50;5039027;28;20388;-60
2021/12/01 00:13:16;;;;;;;4.78;2.90;;;;;;;5.82;96.19;98360.91;5033569;28;20226;-60
2021/12/01 00:15:42;;;;;;;5.07;2.95;;;;;;;5.91;95.76;98366.66;5038430;28;20091;-60
2021/12/01 00:18:08;;;;;;;4.50;2.80;;;;;;;5.91;95.79;98374.66;5040274;28;20029;-60
2021/12/01 00:20:33;;;;;;;5.22;3.13;;;;;;;5.82;96.02;98360.91;5039694;28;20052;-60
2021/12/01 00:22:59;;;;;;;4.20;2.70;;;;;;;5.82;95.96;98356.41;5038806;28;20021;-60
2021/12/01 00:25:25;;;;;;;4.28;2.95;;;;;;;5.91;95.44;98361.34;5038114;28;21511;-60
2021/12/01 00:27:51;;;;;;;4.60;3.15;;;;;;;5.88;95.46;98348.53;5042942;28;20035;-60
2021/12/01 00:30:17;;;;;;;3.83;2.58;;;;;;;5.94;95.22;98342.28;5044739;28;20033;-60
2021/12/01 00:32:43;;;;;;;4.18;2.40;;;;;;;5.90;95.11;98335.81;5043365;28;20498;-61
2021/12/01 00:35:08;;;;;;;3.45;2.00;;;;;;;5.93;94.46;98324.69;5036364;28;20657;-61
2021/12/01 00:37:34;;;;;;;2.95;2.15;;;;;;;5.84;95.00;98327.72;5039098;28;20086;-60
2021/12/01 00:39:59;;;;;;;4.28;2.72;;;;;;;5.78;95.27;98320.66;5044587;28;20455;-60
2021/12/01 00:42:25;;;;;;;4.20;2.50;;;;;;;5.80;95.25;98318.59;5044500;28;20748;-60
2021/12/01 00:44:59;;;;;;;3.58;2.20;;;;;;;5.87;94.62;98309.69;5042138;28;20431;-60
2021/12/01 00:47:49;;;;;;;6.60;2.78;;;;;;;5.82;95.07;98316.50;5033873;28;20061;-61
2021/12/01 00:50:32;;;;;;;4.35;2.60;;;;;;;5.86;94.77;98313.38;5043372;28;20036;-61
2021/12/01 00:53:01;;;;;;;3.97;2.25;;;;;;;5.87;94.69;98307.84;5040954;28;20140;-60
2021/12/01 00:55:26;;;;;;;4.10;2.58;;;;;;;5.86;94.42;98311.50;5043957;28;20245;-60
2021/12/01 00:57:52;;;;;;;4.20;2.58;;;;;;;5.93;94.18;98314.88;5043486;28;20020;-60
2021/12/01 01:00:19;;;;;;;3.05;2.22;;;;;;;5.95;93.34;98315.47;5044028;28;20044;-60
2021/12/01 01:02:44;;;;;;;2.85;2.05;;;;;;;5.93;93.83;98314.06;5041328;28;20031;-60
2021/12/01 01:05:09;;;;;;;3.30;2.10;;;;;;;5.90;94.17;98295.91;5042837;28;20036;-60
2021/12/01 01:07:35;;;;;;;3.45;2.40;;;;;;;5.89;94.07;98296.94;5044818;28;20040;-60
2021/12/01 01:10:06;;;;;;;3.28;2.13;;;;;;;5.87;94.35;98283.09;5043965;28;20029;-60
2021/12/01 01:18:06;;;;;;;3.60;2.00;;;;;;;5.77;94.91;98262.41;5043385;28;20055;-60
2021/12/01 01:20:32;;;;;;;3.00;1.98;;;;;;;5.82;94.48;98260.66;5037012;28;20052;-60
2021/12/01 01:22:57;;;;;;;3.20;2.03;;;;;;;5.85;94.39;98259.38;5044008;28;20021;-60
2021/12/01 01:25:23;;;;;;;3.45;1.90;;;;;;;5.82;94.72;98250.03;5041731;28;20049;-60
2021/12/01 01:27:48;;;;;;;3.03;2.08;;;;;;;5.81;94.23;98242.28;5042973;28;20040;-60
2021/12/01 01:30:13;;;;;;;3.40;1.90;;;;;;;5.76;94.54;98240.31;5041172;28;20040;-60
2021/12/01 01:32:39;;;;;;;2.80;1.90;;;;;;;5.78;94.71;98238.22;5044005;28;20025;-61
2021/12/01 01:35:06;;;;;;;2.83;2.00;;;;;;;5.86;93.98;98238.91;5042939;28;20063;-60
2021/12/01 01:37:32;;;;;;;2.65;2.00;;;;;;;5.78;94.25;98227.59;5044332;28;20063;-60
2021/12/01 01:39:57;;;;;;;2.38;1.77;;;;;;;5.74;94.96;98225.63;5042559;28;20557;-60
2021/12/01 01:42:22;;;;;;;3.72;2.50;;;;;;;5.71;94.78;98218.94;5042994;28;20095;-60
2021/12/01 01:44:48;;;;;;;4.75;2.50;;;;;;;5.73;95.03;98213.41;5037683;28;20484;-60
2021/12/01 01:47:13;;;;;;;5.30;2.70;;;;;;;5.70;95.06;98219.19;5043608;28;20091;-60
2021/12/01 01:49:59;;;;;;;3.63;2.20;;;;;;;5.75;95.37;98204.16;5041357;28;20025;-60
2021/12/01 01:52:26;;;;;;;3.72;2.30;;;;;;;5.69;95.54;98202.44;5039694;28;20060;-60
2021/12/01 01:54:52;;;;;;;3.28;2.25;;;;;;;5.68;95.36;98198.16;5043082;28;20053;-60
2021/12/01 01:57:17;;;;;;;5.28;2.70;;;;;;;5.65;95.98;98190.66;5042871;28;20768;-60
2021/12/01 01:59:43;;;;;;;4.30;2.50;;;;;;;5.67;95.70;98183.25;5043416;28;20240;-60
2021/12/01 02:02:08;;;;;;;3.45;2.42;;;;;;;5.68;95.81;98176.88;5043245;28;20080;-59
2021/12/01 02:04:34;;;;;;;2.47;1.88;;;;;;;5.65;95.96;98169.38;5042215;28;20037;-60
2021/12/01 02:07:01;;;;;;;3.20;2.28;;;;;;;5.58;96.17;98158.09;5040923;28;20409;-60
2021/12/01 02:09:26;;;;;;;3.75;2.10;;;;;;;5.65;95.72;98163.28;5042498;28;20035;-60
2021/12/01 02:11:53;;;;;;;4.05;2.15;;;;;;;5.63;96.18;98158.19;5043415;28;20049;-60
2021/12/01 02:14:19;;;;;;;3.22;2.20;;;;;;;5.58;96.36;98158.09;5042434;28;20064;-61
2021/12/01 02:16:44;;;;;;;3.30;1.80;;;;;;;5.56;96.69;98149.53;5043402;28;20647;-62
2021/12/01 02:19:10;;;;;;;3.75;2.25;;;;;;;5.53;97.24;98142.84;5043521;28;20036;-61
2021/12/01 02:21:35;;;;;;;3.60;2.13;;;;;;;5.50;97.31;98138.00;5043875;28;20037;-61
2021/12/01 02:24:06;;;;;;;5.25;2.00;;;;;;;5.49;96.87;98138.22;5043692;28;20032;-62
2021/12/01 02:26:33;;;;;;;;;;;;;;;5.47;97.47;98135.00;5043682;28;20041;-60
2021/12/01 02:29:00;;;;;;;3.38;2.25;;;;;;;5.37;97.23;98130.31;5041465;28;19974;-62
2021/12/01 02:31:28;;;;;;;3.13;2.00;;;;;;;5.41;97.44;98126.91;5042764;28;20041;-60
2021/12/01 02:33:54;;;;;;;2.92;2.08;;;;;;;5.46;97.49;98117.44;5035037;28;20131;-60
2021/12/01 02:36:20;;;;;;;5.10;2.38;;;;;;;5.40;97.03;98114.69;5040854;28;20046;-62
2021/12/01 02:38:46;;;;;;;3.53;2.20;;;;;;;5.43;96.26;98104.63;5036105;28;20399;-60
2021/12/01 02:41:11;;;;;;;5.35;2.40;;;;;;;5.47;96.09;98108.44;5042770;28;20088;-60
2021/12/01 02:43:37;;;;;;;3.70;2.30;;;;;;;5.45;96.18;98110.53;5041171;28;20773;-60
2021/12/01 02:46:02;;;;;;;3.70;2.40;;;;;;;5.46;96.00;98112.13;5041440;28;20037;-60
2021/12/01 02:48:29;;;;;;;3.80;2.50;;;;;;;5.45;95.76;98106.00;5038641;28;20044;-60
2021/12/01 02:50:54;;;;;;;3.30;2.20;;;;;;;5.44;95.70;98098.25;5038209;28;20490;-60
2021/12/01 02:53:20;;;;;;;3.95;2.28;;;;;;;5.39;95.67;98094.47;5040327;28;20037;-61
2021/12/01 02:55:54;;;;;;;3.38;2.17;;;;;;;5.39;95.39;98080.38;5040114;28;20051;-60
2021/12/01 02:58:20;;;;;;;3.42;2.30;;;;;;;5.45;94.85;98094.59;5039048;28;20071;-60
2021/12/01 03:00:45;;;;;;;5.30;2.88;;;;;;;5.45;94.75;98083.94;5041481;28;20041;-60
2021/12/01 03:03:11;;;;;;;3.38;2.45;;;;;;;5.43;95.30;98086.84;5041534;28;20462;-60
2021/12/01 03:05:37;;;;;;;5.32;2.55;;;;;;;5.45;95.11;98084.75;5033427;28;20102;-60
2021/12/01 03:08:03;;;;;;;4.53;2.53;;;;;;;5.45;94.48;98078.63;5037336;28;20452;-60
2021/12/01 03:10:29;;;;;;;4.18;2.60;;;;;;;5.47;94.52;98071.25;5038461;28;20055;-60
2021/12/01 03:12:54;;;;;;;4.07;2.50;;;;;;;5.53;93.72;98057.78;5041061;28;20040;-60
2021/12/01 03:15:20;;;;;;;5.63;3.05;;;;;;;5.46;94.41;98059.78;5039188;28;20033;-60
2021/12/01 03:17:45;;;;;;;5.22;2.63;;;;;;;5.49;93.84;98045.22;5037643;28;20078;-60
2021/12/01 03:20:11;;;;;;;5.35;3.17;;;;;;;5.50;94.07;98034.34;5040918;28;20038;-61
2021/12/01 03:22:36;;;;;;;5.15;3.05;;;;;;;5.46;93.53;98030.53;5042210;28;20021;-60
2021/12/01 03:25:12;;;;;;;5.10;3.10;;;;;;;5.52;93.19;98026.16;5041360;28;20216;-60
2021/12/01 03:27:37;;;;;;;4.82;3.40;;;;;;;5.49;93.56;98015.97;5038884;28;20024;-60
2021/12/01 03:30:05;;;;;;;6.25;3.35;;;;;;;5.50;93.71;98022.91;5041899;28;20032;-60
2021/12/01 03:32:31;;;;;;;5.68;3.55;;;;;;;5.49;93.63;97990.22;5038031;28;20068;-61
2021/12/01 03:34:57;;;;;;;6.35;3.55;;;;;;;5.51;92.56;97977.47;5042092;28;20098;-61
2021/12/01 03:37:23;;;;;;;7.00;3.45;;;;;;;5.51;92.95;97984.66;5023063;28;20518;-60
2021/12/01 03:39:48;;;;;;;5.10;3.42;;;;;;;5.48;93.31;97969.19;5041274;28;20037;-60
2021/12/01 03:42:14;;;;;;;5.57;3.47;;;;;;;5.45;93.46;97980.31;5038717;28;20736;-61
2021/12/01 03:44:39;;;;;;;5.35;3.53;;;;;;;5.47;93.18;97959.63;5037875;28;20024;-60
2021/12/01 03:47:05;;;;;;;5.18;3.53;;;;;;;5.45;93.12;97954.53;5040620;28;20041;-60
2021/12/01 03:49:30;;;;;;;5.50;3.40;;;;;;;5.47;93.29;97954.31;5041174;28;20048;-61
2021/12/01 03:51:55;;;;;;;8.07;4.32;;;;;;;5.48;93.22;97939.97;5040783;28;20491;-60
2021/12/01 03:54:21;;;;;;;8.35;3.55;;;;;;;5.46;93.75;97942.03;5041048;28;20519;-60
2021/12/01 03:56:46;;;;;;;5.65;3.45;;;;;;;5.41;93.98;97940.91;5041672;28;20029;-60
2021/12/01 03:59:13;;;;;;;8.05;3.75;;;;;;;5.53;93.28;97943.50;5041491;28;20028;-60
2021/12/01 04:01:38;;;;;;;8.63;3.95;;;;;;;5.50;93.04;97940.53;5040555;28;20052;-62
2021/12/01 04:04:04;;;;;;;6.80;3.85;;;;;;;5.50;93.11;97943.19;5039881;28;20041;-61
2021/12/01 04:06:29;;;;;;;9.55;4.05;;;;;;;5.51;92.83;97939.47;5040242;28;20037;-60
2021/12/01 04:08:55;;;;;;;7.28;4.00;;;;;;;5.54;93.10;97960.25;5041526;28;20029;-60
2021/12/01 04:11:21;;;;;;;6.85;4.13;;;;;;;5.49;93.37;97950.38;5041135;28;20376;-60
2021/12/01 04:13:47;;;;;;;5.30;3.30;;;;;;;5.55;93.25;97953.91;5040547;28;20040;-61
2021/12/01 04:16:12;;;;;;;5.13;3.47;;;;;;;5.42;93.66;97939.06;5040975;28;20233;-61
2021/12/01 04:18:39;;;;;;;5.20;3.40;;;;;;;5.44;93.81;97941.47;5035347;28;20110;-61
2021/12/01 04:21:04;;;;;;;6.70;2.95;;;;;;;5.44;93.72;97928.19;5041347;28;20148;-61
2021/12/01 04:23:30;;;;;;;6.70;3.42;;;;;;;5.39;93.91;97937.72;5040193;28;20060;-60
2021/12/01 04:25:56;;;;;;;4.95;3.00;;;;;;;5.44;94.15;97933.50;5040920;28;20672;-60
2021/12/01 04:28:21;;;;;;;6.43;3.38;;;;;;;5.45;94.54;97945.75;5041598;28;20159;-60
2021/12/01 04:30:47;;;;;;;4.93;2.80;;;;;;;5.39;94.94;97934.22;5040551;28;20052;-61
2021/12/01 04:33:12;;;;;;;3.85;2.80;;;;;;;5.38;93.87;97938.72;5040600;28;20094;-60
2021/12/01 04:35:37;;;;;;;5.10;2.72;;;;;;;5.37;94.84;97923.06;5039407;28;20040;-61
2021/12/01 04:38:03;;;;;;;5.25;2.53;;;;;;;5.33;94.75;97938.66;5040062;28;20036;-60
2021/12/01 04:40:28;;;;;;;3.72;2.40;;;;;;;5.41;94.59;97940.09;5036961;28;20094;-61
2021/12/01 04:42:54;;;;;;;3.88;2.50;;;;;;;5.35;94.59;97931.25;5041200;28;20791;-60
2021/12/01 04:45:21;;;;;;;3.97;2.53;;;;;;;5.35;94.39;97923.28;5041092;28;20025;-61
2021/12/01 04:47:51;;;;;;;3.28;2.00;;;;;;;5.32;94.26;97905.16;5041275;28;20029;-60
2021/12/01 04:50:18;;;;;;;3.63;2.15;;;;;;;5.28;94.50;97890.75;5037219;28;20029;-60
2021/12/01 04:52:44;;;;;;;3.70;1.95;;;;;;;5.33;94.94;97896.13;5039514;28;20130;-61
2021/12/01 04:55:09;;;;;;;3.13;1.90;;;;;;;5.36;94.28;97887.69;5041091;28;20159;-60
2021/12/01 04:57:38;;;;;;;3.42;2.00;;;;;;;5.33;94.53;97892.69;5041116;28;20037;-64
2021/12/01 05:00:04;;;;;;;3.92;2.25;;;;;;;5.29;94.72;97884.41;5039216;28;20053;-61
2021/12/01 05:02:29;;;;;;;4.28;2.20;;;;;;;5.27;94.75;97889.16;5040583;28;20522;-60
2021/12/01 05:04:55;;;;;;;4.35;2.00;;;;;;;5.24;95.02;97886.97;5035781;28;20087;-61
2021/12/01 05:07:20;;;;;;;3.85;2.03;;;;;;;5.27;94.48;97875.06;5033105;28;20056;-61
2021/12/01 05:09:46;;;;;;;2.97;1.92;;;;;;;5.22;94.88;97864.31;5040599;28;20032;-60
2021/12/01 05:12:11;;;;;;;4.38;1.70;;;;;;;5.27;94.88;97870.56;5041274;28;20049;-61
2021/12/01 05:14:37;;;;;;;3.58;1.90;;;;;;;5.21;95.39;97860.88;5043226;28;20037;-60
2021/12/01 05:17:03;;;;;;;2.70;1.80;;;;;;;5.27;94.52;97853.81;5042816;28;20041;-61
2021/12/01 05:19:28;;;;;;;2.20;1.80;;;;;;;5.25;94.95;97851.38;5044665;28;20025;-61
2021/12/01 05:21:54;;;;;;;2.55;1.80;;;;;;;5.18;94.75;97840.91;5043876;28;20037;-60
2021/12/01 05:24:19;;;;;;;2.85;1.50;;;;;;;5.25;95.23;97819.50;5044690;28;20025;-60
2021/12/01 05:26:45;;;;;;;3.50;1.95;;;;;;;5.24;94.95;97823.22;5042421;28;20105;-61
2021/12/01 05:29:10;;;;;;;3.38;2.00;;;;;;;5.27;94.44;97827.25;5044003;28;20094;-60
2021/12/01 05:31:36;;;;;;;3.40;1.98;;;;;;;5.26;94.92;97810.47;5043039;28;20034;-62
2021/12/01 05:34:01;;;;;;;2.60;1.77;;;;;;;5.30;94.06;97816.94;5044214;28;20033;-63
2021/12/01 05:36:27;;;;;;;8.65;5.78;;;;;;;5.29;94.41;97814.50;5042584;28;20036;-62
2021/12/01 05:38:52;;;;;;;3.85;2.30;;;;;;;5.26;94.85;97805.16;5043000;28;20036;-60
2021/12/01 05:41:18;;;;;;;3.92;2.88;;;;;;;5.21;95.24;97801.63;5043269;28;20048;-62
2021/12/01 05:43:43;;;;;;;3.65;2.47;;;;;;;5.14;96.14;97801.78;5043480;28;20075;-62
2021/12/01 05:46:09;;;;;;;4.20;2.28;;;;;;;5.26;95.53;97799.84;5039172;28;20052;-62
2021/12/01 05:48:34;;;;;;;7.88;2.33;;;;;;;5.21;95.73;97791.00;5041785;28;20037;-62
2021/12/01 05:50:59;;;;;;;5.80;3.78;;;;;;;5.15;95.69;97798.09;5042252;28;20458;-62
2021/12/01 05:53:25;;;;;;;3.13;2.10;;;;;;;5.12;95.93;97778.16;5044131;28;20430;-61
2021/12/01 05:55:51;;;;;;;4.15;2.13;;;;;;;5.19;95.60;97772.66;5042524;28;20434;-61
2021/12/01 05:58:17;;;;;;;4.00;2.72;;;;;;;5.11;96.42;97768.53;5042717;28;20021;-62
2021/12/01 06:00:42;;;;;;;4.68;2.50;;;;;;;5.12;96.42;97754.25;5042936;28;20041;-61
2021/12/01 06:03:08;;;;;;;3.50;2.30;;;;;;;5.07;96.42;97742.75;5043579;28;20498;-62
2021/12/01 06:05:33;;;;;;;6.10;3.13;;;;;;;5.05;96.98;97740.31;5042654;28;20071;-61
2021/12/01 06:07:59;;;;;;;4.00;2.80;;;;;;;5.12;97.08;97740.16;5042776;28;20029;-61
2021/12/01 06:10:24;;;;;;;4.43;2.78;;;;;;;5.02;97.25;97729.38;5043270;28;20059;-61
2021/12/01 06:12:51;;;;;;;8.77;3.53;;;;;;;5.09;97.26;97722.03;5041902;28;20037;-61
2021/12/01 06:15:17;;;;;;;8.45;3.15;;;;;;;5.12;97.18;97716.25;5034357;28;20030;-62
2021/12/01 06:17:43;;;;;;;6.72;2.70;;;;;;;4.98;97.52;97713.13;5039562;28;20033;-61
2021/12/01 06:20:09;;;;;;;4.30;2.60;;;;;;;5.07;97.96;97700.25;5042455;28;20144;-62
2021/12/01 06:22:34;;;;;;;6.88;4.45;;;;;;;5.02;97.59;97689.53;5043007;28;20025;-61
2021/12/01 06:25:00;;;;;;;5.30;2.83;;;;;;;5.05;97.56;97686.41;5040671;28;20457;-62
2021/12/01 06:27:25;;;;;;;5.20;3.00;;;;;;;5.06;98.30;97677.38;5042083;28;20045;-60
2021/12/01 06:29:52;;;;;;;6.90;3.17;;;;;;;4.94;98.86;97675.66;5040650;28;20029;-62
2021/12/01 06:32:17;;;;;;;5.45;3.03;;;;;;;5.00;98.31;97673.06;5042145;28;20158;-62
2021/12/01 06:34:43;;;;;;;5.28;3.10;;;;;;;5.01;98.59;97658.72;5036364;28;20495;-62
2021/12/01 06:37:08;;;;;;;5.53;3.22;;;;;;;4.94;98.95;97653.56;5038135;28;20114;-62
2021/12/01 06:39:33;;;;;;;5.65;2.80;;;;;;;4.95;98.82;97655.22;5035694;28;20033;-62
2021/12/01 06:41:59;;;;;;;5.45;3.10;;;;;;;4.95;98.76;97641.94;5036728;28;20052;-62
2021/12/01 06:44:24;;;;;;;5.32;3.10;;;;;;;4.90;98.85;97645.31;5041616;28;20044;-61
2021/12/01 06:46:51;;;;;;;3.65;2.28;;;;;;;4.98;98.85;97623.66;5040994;28;20037;-61
2021/12/01 06:49:16;;;;;;;4.63;2.60;;;;;;;4.95;98.72;97613.53;5040995;28;20132;-62
2021/12/01 06:51:41;;;;;;;4.30;2.60;;;;;;;4.95;98.43;97608.22;5040340;28;20041;-61
2021/12/01 06:54:07;;;;;;;4.78;2.45;;;;;;;4.96;98.72;97595.72;5042945;28;20579;-61
2021/12/01 06:56:32;;;;;;;4.03;2.03;;;;;;;4.95;99.02;97594.94;5027732;28;20511;-62
2021/12/01 06:58:58;;;;;;;3.40;2.20;;;;;;;5.00;98.73;97593.41;5038247;28;20052;-61
2021/12/01 07:01:23;;;;;;;3.85;2.30;;;;;;;5.03;98.74;97590.25;5038482;28;20049;-61
2021/12/01 07:03:48;;;;;;;3.40;2.20;;;;;;;5.03;98.18;97590.25;5040800;28;20037;-61
2021/12/01 07:06:14;;;;;;;4.28;2.13;;;;;;;5.03;98.37;97590.25;5038277;28;20141;-61
2021/12/01 07:08:40;;;;;;;2.65;1.95;;;;;;;5.05;98.60;97574.88;5040710;28;20663;-62
2021/12/01 07:11:05;;;;;;;3.22;2.20;;;;;;;5.10;97.81;97582.91;5037471;28;20045;-61
2021/12/01 07:13:33;;;;;;;3.35;2.30;;;;;;;5.12;97.29;97578.16;5039053;28;20574;-62
2021/12/01 07:15:59;;;;;;;3.58;2.05;;;;;;;5.12;97.54;97580.81;5036972;28;20040;-61
2021/12/01 07:18:24;;;;;;;7.78;2.25;;;;;;;5.18;97.78;97569.19;5035924;28;20037;-61
2021/12/01 07:20:50;;;;;;;5.18;2.67;;;;;;;5.16;97.69;97574.72;5039908;28;20052;-62
2021/12/01 07:23:15;;;;;;;13.80;11.60;;;;;;;5.13;97.17;97567.28;5038036;28;20048;-61
2021/12/01 07:25:41;;;;;;;3.70;2.13;;;;;;;5.16;96.77;97550.84;5039722;28;20045;-62
2021/12/01 07:28:06;;;;;;;3.55;2.20;;;;;;;5.19;97.22;97538.91;5038078;28;20733;-62
2021/12/01 07:30:32;;;;;;;3.60;2.13;;;;;;;5.26;97.02;97550.16;5041190;28;20083;-62
2021/12/01 07:32:58;;;;;;;3.88;2.15;;;;;;;5.26;97.17;97544.03;5041039;28;20044;-62
2021/12/01 07:35:23;;;;;;;4.07;2.00;;;;;;;5.30;96.99;97535.31;5038863;28;20458;-61
2021/12/01 07:37:49;;;;;;;3.72;2.22;;;;;;;5.21;97.44;97542.13;5041305;28;20437;-62
2021/12/01 07:40:15;;;;;;;4.50;2.03;;;;;;;5.25;97.63;97526.50;5041456;28;20056;-61
2021/12/01 07:42:41;;;;;;;6.22;2.92;;;;;;;5.33;97.35;97526.06;5041053;28;20033;-62
2021/12/01 07:45:07;;;;;;;2.90;2.10;;;;;;;5.28;97.22;97505.53;5034438;28;20027;-61
2021/12/01 07:47:32;;;;;;;2.33;1.80;;;;;;;5.29;97.64;97506.34;5031409;28;20068;-62
2021/12/01 07:49:58;;;;;;;4.10;2.22;;;;;;;5.33;97.68;97505.59;5037942;28;20071;-62
2021/12/01 07:52:23;;;;;;;4.57;2.25;;;;;;;5.38;97.09;97500.34;5037132;28;20076;-62
2021/12/01 07:54:49;;;;;;;3.35;2.40;;;;;;;5.44;96.62;97492.41;5037031;28;20037;-61
2021/12/01 07:57:14;;;;;;;4.30;3.33;;;;;;;5.55;96.29;97496.78;5035819;28;20401;-61
2021/12/01 07:59:40;;;;;;;2.88;1.92;;;;;;;5.53;95.94;97502.34;5041339;28;20086;-61
2021/12/01 08:02:06;;;;;;;6.75;4.13;;;;;;;5.60;95.71;97492.31;5040643;28;20049;-62
2021/12/01 08:04:32;;;;;;;7.38;4.55;;;;;;;5.61;95.90;97482.47;5029070;28;20033;-61
2021/12/01 08:06:57;;;;;;;7.00;3.60;;;;;;;5.71;95.53;97481.75;5038970;28;20158;-62
2021/12/01 08:09:24;;;;;;;2.60;1.90;;;;;;;5.69;95.28;97468.72;5038310;28;20041;-61
2021/12/01 08:11:50;;;;;;;2.80;1.70;;;;;;;5.66;95.46;97457.78;5041100;28;20036;-61
2021/12/01 08:14:15;;;;;;;2.00;1.58;;;;;;;5.67;95.96;97454.91;5041121;28;20048;-63
2021/12/01 08:16:41;;;;;;;4.70;2.63;;;;;;;5.71;96.18;97448.00;5032241;28;20542;-63
2021/12/01 08:19:06;;;;;;;2.35;1.80;;;;;;;5.65;96.67;97445.56;5039579;28;20033;-61
2021/12/01 08:21:32;;;;;;;4.18;2.10;;;;;;;5.60;97.31;97454.31;5040456;28;20069;-62
2021/12/01 08:23:57;;;;;;;3.28;2.50;;;;;;;5.61;97.69;97445.25;5040535;28;20126;-61
2021/12/01 08:26:23;;;;;;;2.75;1.65;;;;;;;5.61;97.53;97434.63;5039960;28;20045;-61
2021/12/01 08:28:49;;;;;;;2.75;1.90;;;;;;;5.69;97.63;97426.22;5035073;28;20024;-61
2021/12/01 08:31:15;;;;;;;1.77;1.48;;;;;;;5.66;97.41;97425.91;5037543;28;20037;-61
2021/12/01 08:33:41;;;;;;;3.55;1.90;;;;;;;5.58;98.41;97424.50;5038868;28;20068;-61
2021/12/01 08:36:06;;;;;;;2.90;1.88;;;;;;;5.62;98.94;97438.91;5026613;28;20049;-61
2021/12/01 08:38:31;;;;;;;1.90;1.60;;;;;;;5.61;99.29;97424.00;5035809;28;20505;-61
2021/12/01 08:40:58;;;;;;;2.10;1.70;;;;;;;5.59;99.22;97415.47;5038363;28;20045;-60
2021/12/01 08:43:23;;;;;;;2.05;1.70;;;;;;;5.58;99.65;97425.31;5030766;28;20127;-61
2021/12/01 08:45:49;;;;;;;3.47;1.80;;;;;;;5.60;99.39;97425.84;5035725;28;20040;-61
2021/12/01 08:48:14;;;;;;;3.78;1.75;;;;;;;5.62;98.97;97425.63;5037296;28;20021;-61
2021/12/01 08:50:40;;;;;;;2.65;1.88;;;;;;;5.68;98.85;97427.25;5043154;28;20041;-61
2021/12/01 08:53:05;;;;;;;3.15;1.88;;;;;;;5.67;98.66;97428.31;5044532;28;20041;-61
2021/12/01 08:55:31;;;;;;;3.33;1.75;;;;;;;5.75;98.47;97413.75;5042810;28;20045;-61
2021/12/01 08:57:56;;;;;;;4.07;2.75;;;;;;;5.79;98.19;97412.97;5044757;28;20108;-61
2021/12/01 09:00:21;;;;;;;1.90;1.50;;;;;;;5.74;97.94;97404.97;5043534;28;20045;-61
2021/12/01 09:02:47;;;;;;;1.42;1.33;;;;;;;5.77;97.50;97409.78;5036812;28;20562;-61
2021/12/01 09:05:12;;;;;;;3.95;2.20;;;;;;;5.79;97.69;97405.00;5040184;28;20506;-61
2021/12/01 09:07:38;;;;;;;3.13;2.28;;;;;;;5.78;97.30;97400.72;5043705;28;20040;-61
2021/12/01 09:10:04;;;;;;;2.00;1.65;;;;;;;5.87;97.31;97400.28;5039596;28;20028;-61
2021/12/01 09:12:29;;;;;;;1.73;1.50;;;;;;;5.83;96.55;97395.44;5044405;28;20170;-62
2021/12/01 09:14:55;;;;;;;1.60;1.50;;;;;;;5.85;96.85;97389.88;5040447;28;20108;-61
2021/12/01 09:17:21;;;;;;;2.03;1.50;;;;;;;5.80;97.20;97374.69;5042567;28;20403;-61
2021/12/01 09:19:47;;;;;;;1.30;1.20;;;;;;;5.90;96.88;97381.13;5044037;28;20555;-61
2021/12/01 09:22:13;;;;;;;1.25;1.15;;;;;;;5.90;97.33;97386.47;5043400;28;20038;-61
2021/12/01 09:24:39;;;;;;;1.17;1.08;;;;;;;5.91;96.25;97366.78;5044505;28;20048;-61
2021/12/01 09:27:05;;;;;;;1.20;1.10;;;;;;;5.87;96.20;97368.38;5040404;28;20049;-61
2021/12/01 09:29:30;;;;;;;1.48;1.30;;;;;;;5.99;96.33;97371.63;5044102;28;20029;-61
2021/12/01 09:31:56;;;;;;;2.08;1.50;;;;;;;6.02;95.53;97374.59;5042667;28;20045;-60
2021/12/01 09:34:22;;;;;;;1.50;1.40;;;;;;;6.04;95.18;97369.00;5043288;28;20309;-60
2021/12/01 09:36:47;;;;;;;2.63;2.17;;;;;;;6.07;95.13;97371.16;5039674;28;20598;-61
2021/12/01 09:39:12;;;;;;;1.33;1.15;;;;;;;6.01;95.39;97369.53;5039900;28;20025;-61
2021/12/01 09:41:38;;;;;;;1.27;1.17;;;;;;;5.96;95.84;97361.50;5042318;28;20514;-61
2021/12/01 09:44:03;;;;;;;1.20;1.10;;;;;;;5.83;96.55;97362.75;5030525;28;20029;-63
2021/12/01 09:46:30;;;;;;;1.20;1.10;;;;;;;5.82;97.04;97361.16;5038430;28;20057;-60
2021/12/01 09:48:56;;;;;;;1.13;1.10;;;;;;;5.81;96.78;97349.69;5018944;28;20087;-61
2021/12/01 09:51:21;;;;;;;0.98;0.95;;;;;;;5.86;96.37;97340.16;5037600;28;20041;-61
2021/12/01 09:53:47;;;;;;;2.15;1.23;;;;;;;5.95;96.33;97339.44;5042725;28;20498;-62
2021/12/01 09:56:12;;;;;;;0.95;0.95;;;;;;;6.03;95.62;97327.50;5041410;28;20033;-62
2021/12/01 09:58:38;;;;;;;1.05;0.93;;;;;;;6.09;94.70;97326.50;5040334;28;20116;-61
2021/12/01 10:01:09;;;;;;;2.13;0.90;;;;;;;6.26;94.73;97313.78;5036994;28;20045;-61
2021/12/01 10:03:34;;;;;;;0.82;0.80;;;;;;;6.28;94.47;97323.38;5036077;28;20037;-63
2021/12/01 10:06:12;;;;;;;0.95;0.95;;;;;;;6.17;94.60;97310.03;5027786;28;20048;-61
2021/12/01 10:08:42;;;;;;;2.15;1.08;;;;;;;6.12;94.36;97302.03;5036692;28;20036;-61
2021/12/01 10:11:17;;;;;;;2.70;1.10;;;;;;;6.19;94.64;97296.44;5042906;28;20040;-61
2021/12/01 10:13:55;;;;;;;0.95;0.90;;;;;;;6.21;94.63;97294.34;5039171;28;20032;-61
2021/12/01 10:16:21;;;;;;;1.20;1.10;;;;;;;6.25;95.21;97290.09;5029804;28;20139;-61
2021/12/01 10:18:52;;;;;;;1.73;1.33;;;;;;;6.19;95.76;97283.16;5041050;28;20040;-62
2021/12/01 10:21:22;;;;;;;1.33;1.23;;;;;;;6.22;96.10;97283.44;5040527;28;20127;-62
2021/12/01 10:23:52;;;;;;;1.17;1.10;;;;;;;6.24;95.79;97283.16;5041924;28;20333;-62
2021/12/01 10:26:41;;;;;;;1.35;1.10;;;;;;;6.38;95.15;97259.53;5034062;28;20571;-61
2021/12/01 10:29:09;;;;;;;3.88;1.42;;;;;;;6.38;95.24;97252.34;5040394;28;20131;-63
2021/12/01 10:31:48;;;;;;;1.08;0.98;;;;;;;6.36;95.32;97248.34;5039687;28;20122;-66
2021/12/01 10:34:23;;;;;;;2.22;1.25;;;;;;;6.46;94.72;97243.84;5040710;28;20029;-62
2021/12/01 10:37:05;;;;;;;0.80;0.80;;;;;;;6.55;93.38;97225.50;5034673;28;20071;-61
2021/12/01 10:39:31;;;;;;;3.15;1.00;;;;;;;6.68;92.83;97224.94;5042424;28;20182;-61
2021/12/01 10:41:56;;;;;;;0.85;0.85;;;;;;;6.70;92.90;97217.50;5038752;28;20067;-62
2021/12/01 10:44:21;;;;;;;1.27;1.17;;;;;;;6.66;93.96;97205.81;5023739;28;20036;-62
2021/12/01 10:46:52;;;;;;;1.05;1.05;;;;;;;6.72;93.58;97203.16;5040484;28;20040;-62
2021/12/01 10:49:32;;;;;;;1.60;1.20;;;;;;;6.51;94.30;97207.66;5040444;28;20035;-61
2021/12/01 10:51:58;;;;;;;1.40;1.30;;;;;;;6.55;94.37;97201.53;5021922;28;20052;-62
2021/12/01 10:54:23;;;;;;;1.75;0.98;;;;;;;6.69;93.42;97199.16;5042032;28;20040;-62
2021/12/01 10:57:21;;;;;;;1.38;1.23;;;;;;;6.76;92.81;97193.53;5038607;28;20120;-62
2021/12/01 10:59:48;;;;;;;0.93;0.80;;;;;;;7.06;91.49;97182.88;5037243;28;20039;-62
2021/12/01 11:02:15;;;;;;;4.22;3.22;;;;;;;7.12;91.29;97181.00;5037519;28;20131;-62
2021/12/01 11:04:51;;;;;;;1.70;1.20;;;;;;;7.28;90.50;97173.75;5037408;28;20116;-62
2021/12/01 11:07:42;;;;;;;1.38;0.65;;;;;;;7.31;90.19;97165.22;5037193;28;20097;-62
2021/12/01 11:10:09;;;;;;;1.08;1.08;;;;;;;7.22;90.32;97164.97;5037544;28;20041;-62
2021/12/01 11:12:34;;;;;;;1.10;0.82;;;;;;;7.01;91.58;97174.88;5041797;28;20032;-61
2021/12/01 11:15:15;;;;;;;0.70;0.70;;;;;;;6.99;92.16;97158.38;5041209;28;20036;-62
2021/12/01 11:17:41;;;;;;;;;;;;;;;6.99;91.66;97138.91;5030726;28;20076;-61
2021/12/01 11:20:07;;;;;;;4.13;0.70;;;;;;;7.10;91.40;97151.94;5039209;28;19979;-61
2021/12/01 11:22:36;;;;;;;3.35;1.67;;;;;;;6.96;91.91;97144.78;5038220;28;20036;-61
2021/12/01 11:25:21;;;;;;;1.42;1.20;;;;;;;7.03;91.13;97140.78;5039624;28;20025;-60
2021/12/01 11:27:47;;;;;;;2.55;1.50;;;;;;;7.27;91.20;97137.53;5040172;28;20059;-61
2021/12/01 11:30:12;;;;;;;1.45;1.10;;;;;;;7.14;90.73;97130.91;5038561;28;20482;-61
2021/12/01 11:32:38;;;;;;;0.73;0.73;;;;;;;7.13;90.82;97135.41;5038054;28;20044;-61
2021/12/01 11:35:04;;;;;;;1.40;1.08;;;;;;;7.20;91.13;97139.69;5035060;28;20040;-63
2021/12/01 11:37:29;;;;;;;0.57;0.57;;;;;;;7.15;90.63;97137.03;5048726;28;20123;-62
2021/12/01 11:39:56;;;;;;;1.23;1.20;;;;;;;7.13;91.48;97122.09;5036745;28;20044;-61
2021/12/01 11:42:22;;;;;;;1.20;1.10;;;;;;;7.21;91.66;97117.28;5034138;28;20040;-63
2021/12/01 11:44:47;;;;;;;1.05;1.00;;;;;;;7.17;91.85;97114.38;5018025;28;20025;-60